Time;durP1;ratioP1;P1;durP2;ratioP2;P2;SDS_P1;SDS_P2;PMS_P1;PMS_P2;Temp;Humidity;BMP_temperature;BMP_pressure;BME280_temperature;BME280_humidity;BME280_pressure;Samples;Min_cycle;Max_cycle;Signal;HPM_P1;HPM_P2
2022/12/23 00:01:26;;;;;;;83.43;49.58;;;256.20;2252.80;;;;;;5088985;28;20031;-59
2022/12/23 00:03:55;;;;;;;146.02;85.93;;;256.30;1945.60;;;;;;5088861;28;20017;-59
2022/12/23 00:06:21;;;;;;;145.10;74.47;;;256.50;2252.80;;;;;;5088787;28;20439;-59
2022/12/23 00:08:47;;;;;;;82.00;43.42;;;256.60;2252.80;;;;;;5088853;28;20035;-61
2022/12/23 00:11:18;;;;;;;266.60;124.70;;;256.80;2252.80;;;;;;5088975;28;20483;-61
2022/12/23 00:16:29;;;;;;;104.40;72.93;;;281.70;2278.40;;;;;;5089110;28;20496;-60
2022/12/23 00:18:54;;;;;;;115.68;77.35;;;281.70;2278.40;;;;;;5088959;28;20024;-58
2022/12/23 00:21:21;;;;;;;111.53;77.72;;;281.80;2278.40;;;;;;5088688;28;20538;-59
2022/12/23 00:23:49;;;;;;;545.38;285.73;;;281.70;2278.40;;;;;;5088839;28;20020;-59
2022/12/23 00:26:20;;;;;;;290.60;141.40;;;281.70;2278.40;;;;;;5088861;28;20032;-59
2022/12/23 00:28:46;;;;;;;79.97;50.13;;;281.70;2278.40;;;;;;5088464;28;20021;-59
2022/12/23 00:31:12;;;;;;;144.13;76.70;;;281.70;2278.40;;;;;;5088309;28;20085;-59
2022/12/23 00:33:44;;;;;;;76.93;47.80;;;281.70;2278.40;;;;;;5088834;28;20031;-59
2022/12/23 00:36:16;;;;;;;220.68;111.00;;;281.60;2278.40;;;;;;5088452;28;20050;-60
2022/12/23 00:44:11;;;;;;;64.60;42.75;;;281.80;2278.40;;;;;;5088252;28;20039;-59
2022/12/23 00:46:37;;;;;;;75.53;45.38;;;281.80;2278.40;;;;;;5088441;28;20421;-60
2022/12/23 00:51:47;;;;;;;49.83;32.13;;;281.80;2278.40;;;;;;5088784;28;20427;-59
2022/12/23 00:54:13;;;;;;;61.22;43.83;;;281.70;2278.40;;;;;;5087898;28;20028;-60
2022/12/23 00:56:38;;;;;;;185.75;95.40;;;281.70;2278.40;;;;;;5088242;28;20483;-59
2022/12/23 00:59:04;;;;;;;93.03;63.78;;;281.70;2278.40;;;;;;5088529;28;20055;-59
2022/12/23 01:07:01;;;;;;;96.53;55.45;;;281.70;2278.40;;;;;;5087665;28;20047;-61
2022/12/23 01:09:27;;;;;;;93.88;53.33;;;281.70;2278.40;;;;;;5091957;28;20863;-59
2022/12/23 01:11:53;;;;;;;87.95;52.63;;;281.70;2278.40;;;;;;5092124;28;20071;-60
2022/12/23 01:14:19;;;;;;;50.90;37.22;;;281.80;2278.40;;;;;;5092357;28;20128;-60
2022/12/23 01:16:45;;;;;;;61.78;39.80;;;281.80;2278.40;;;;;;5092437;28;20031;-59
2022/12/23 01:19:11;;;;;;;73.28;49.72;;;281.80;2278.40;;;;;;5093508;28;20020;-59
2022/12/23 01:21:36;;;;;;;245.85;127.88;;;281.90;2278.40;;;;;;5094517;28;20115;-59
2022/12/23 01:24:02;;;;;;;73.63;45.40;;;281.70;2278.40;;;;;;5093849;28;20043;-59
2022/12/23 01:26:28;;;;;;;65.70;41.85;;;281.70;2278.40;;;;;;5094017;28;20044;-59
2022/12/23 01:28:56;;;;;;;172.43;112.22;;;281.70;2278.40;;;;;;5094688;28;20020;-65
2022/12/23 01:31:23;;;;;;;201.27;112.00;;;281.70;2278.40;;;;;;5094464;28;20020;-61
2022/12/23 01:33:49;;;;;;;152.93;83.90;;;281.70;2278.40;;;;;;5094727;28;20020;-58
2022/12/23 01:36:14;;;;;;;97.38;62.13;;;281.70;2278.40;;;;;;5093562;28;20035;-59
2022/12/23 01:38:40;;;;;;;108.53;63.30;;;281.70;2278.40;;;;;;5093286;28;20059;-59
2022/12/23 01:41:06;;;;;;;182.63;106.38;;;281.80;2278.40;;;;;;5093331;28;20181;-60
2022/12/23 01:43:47;;;;;;;137.45;84.85;;;281.80;2278.40;;;;;;5092964;28;20466;-59
2022/12/23 01:46:13;;;;;;;150.38;93.43;;;281.90;2278.40;;;;;;5092994;28;20035;-59
2022/12/23 01:48:40;;;;;;;124.05;80.13;;;281.90;2278.40;;;;;;5093537;28;20067;-61
2022/12/23 01:51:14;;;;;;;84.70;53.05;;;281.90;2278.40;;;;;;5093331;28;20115;-60
2022/12/23 01:53:46;;;;;;;76.38;50.65;;;281.80;2278.40;;;;;;5093147;28;20099;-60
2022/12/23 01:56:20;;;;;;;68.53;44.35;;;281.70;2278.40;;;;;;5093183;28;20016;-59
2022/12/23 01:59:08;;;;;;;84.32;52.15;;;281.70;2278.40;;;;;;5093344;28;20016;-59
2022/12/23 02:04:23;;;;;;;53.55;35.25;;;281.70;2278.40;;;;;;5093094;28;20038;-61
2022/12/23 02:09:39;;;;;;;221.48;127.47;;;256.90;2252.80;;;;;;5093145;28;20038;-59
2022/12/23 02:12:29;;;;;;;159.63;96.68;;;256.90;2252.80;;;;;;5092844;28;20042;-59
2022/12/23 02:18:12;;;;;;;59.03;42.45;;;256.70;2252.80;;;;;;5092520;28;20051;-59
2022/12/23 02:20:53;;;;;;;53.50;38.92;;;256.40;2124.80;;;;;;5091995;28;20095;-58
2022/12/23 02:23:31;;;;;;;120.53;74.38;;;256.50;2252.80;;;;;;5092496;28;20466;-59
2022/12/23 02:26:34;;;;;;;43.90;34.10;;;256.50;2252.80;;;;;;5092448;28;20474;-60
2022/12/23 02:29:39;;;;;;;76.10;58.13;;;256.50;2252.80;;;;;;5092287;28;20534;-59
2022/12/23 02:32:27;;;;;;;39.58;28.48;;;256.40;2252.80;;;;;;5092270;28;20023;-60
2022/12/23 02:35:04;;;;;;;110.38;70.78;;;256.40;1996.80;;;;;;5092288;28;20070;-59
2022/12/23 02:37:39;;;;;;;101.25;73.07;;;256.30;2252.80;;;;;;5092149;28;20032;-59
2022/12/23 02:40:34;;;;;;;81.20;60.40;;;256.30;2252.80;;;;;;5092267;28;20073;-59
2022/12/23 02:43:07;;;;;;;71.68;51.25;;;256.30;2252.80;;;;;;5009773;28;20060;-59
2022/12/23 02:46:08;;;;;;;64.68;48.38;;;256.30;2252.80;;;;;;5009772;28;20069;-60
2022/12/23 02:48:55;;;;;;;58.70;42.03;;;256.10;2252.80;;;;;;5009898;28;20026;-59
2022/12/23 02:51:25;;;;;;;69.05;45.17;;;256.10;2252.80;;;;;;5009856;28;20129;-60
2022/12/23 02:53:57;;;;;;;61.05;43.13;;;256.10;2252.80;;;;;;5009950;28;20034;-59
2022/12/23 02:56:26;;;;;;;65.80;48.78;;;256.00;2227.20;;;;;;5009871;28;20037;-59
2022/12/23 02:59:03;;;;;;;63.60;46.83;;;231.30;2252.80;;;;;;5009742;28;20022;-60
2022/12/23 03:01:32;;;;;;;61.80;46.05;;;231.30;2252.80;;;;;;5009668;28;20044;-60
2022/12/23 03:03:58;;;;;;;52.30;37.17;;;231.30;2252.80;;;;;;5009960;28;20022;-60
2022/12/23 03:06:36;;;;;;;53.63;37.55;;;256.00;2252.80;;;;;;5009628;28;20045;-60
2022/12/23 03:09:02;;;;;;;52.08;38.95;;;256.10;2252.80;;;;;;5009588;28;20036;-59
2022/12/23 03:12:02;;;;;;;47.78;34.55;;;256.20;2227.20;;;;;;5009758;28;20030;-60
2022/12/23 03:14:40;;;;;;;48.95;29.50;;;256.20;2150.40;;;;;;5003584;28;20536;-59
2022/12/23 03:17:47;;;;;;;45.22;32.65;;;256.20;2252.80;;;;;;5009784;28;20164;-59
2022/12/23 03:20:14;;;;;;;47.28;33.08;;;256.20;2252.80;;;;;;4997208;28;20069;-60
2022/12/23 03:23:09;;;;;;;50.85;33.35;;;256.30;2252.80;;;;;;5009408;28;20354;-59
2022/12/23 03:25:42;;;;;;;37.78;27.90;;;256.20;2252.80;;;;;;4951144;28;20114;-59
2022/12/23 03:28:20;;;;;;;44.75;32.28;;;256.30;2252.80;;;;;;4951304;28;20027;-60
2022/12/23 03:30:52;;;;;;;37.67;26.77;;;256.30;2252.80;;;;;;4950526;28;20066;-59
2022/12/23 03:33:35;;;;;;;38.57;26.57;;;256.20;2252.80;;;;;;4950653;28;20027;-59
2022/12/23 03:36:10;;;;;;;36.97;27.20;;;256.10;2252.80;;;;;;4950897;28;20276;-60
2022/12/23 03:38:40;;;;;;;36.42;30.45;;;256.00;2252.80;;;;;;4950946;28;20031;-60
2022/12/23 03:41:11;;;;;;;39.65;28.33;;;256.00;2252.80;;;;;;4950869;29;20581;-59
2022/12/23 03:43:49;;;;;;;36.83;27.10;;;256.00;2252.80;;;;;;4950877;28;20038;-59
2022/12/23 03:46:20;;;;;;;66.60;44.72;;;256.00;2252.80;;;;;;4950695;29;20039;-60
2022/12/23 03:48:52;;;;;;;68.03;46.60;;;231.30;2252.80;;;;;;4950748;29;20027;-60
2022/12/23 03:51:30;;;;;;;63.80;45.45;;;231.30;2252.80;;;;;;4950792;29;20623;-59
2022/12/23 03:54:08;;;;;;;53.72;34.60;;;231.30;2252.80;;;;;;4950771;29;20031;-59
2022/12/23 03:56:38;;;;;;;46.90;32.55;;;231.20;2252.80;;;;;;4979148;28;20081;-61
2022/12/23 03:59:16;;;;;;;57.92;40.30;;;231.20;2252.80;;;;;;5008649;28;20056;-59
2022/12/23 04:02:03;;;;;;;48.10;32.45;;;231.30;2252.80;;;;;;5019645;28;20040;-59
2022/12/23 04:04:56;;;;;;;35.85;24.20;;;231.30;2252.80;;;;;;5090943;28;20027;-60
2022/12/23 04:07:27;;;;;;;36.95;27.55;;;256.10;2252.80;;;;;;5090723;28;20093;-59
2022/12/23 04:09:54;;;;;;;41.80;28.92;;;256.10;2252.80;;;;;;5090368;28;20024;-59
2022/12/23 04:12:24;;;;;;;50.55;36.20;;;256.20;2252.80;;;;;;5090646;28;20119;-59
2022/12/23 04:14:50;;;;;;;73.97;46.63;;;256.30;2227.20;;;;;;5090363;28;20458;-59
2022/12/23 04:17:17;;;;;;;79.43;46.17;;;256.30;2252.80;;;;;;5090552;28;20103;-59
2022/12/23 04:19:44;;;;;;;134.30;80.85;;;256.30;2252.80;;;;;;5090437;28;20089;-59
2022/12/23 04:22:11;;;;;;;93.22;63.63;;;256.20;2252.80;;;;;;5090114;28;20028;-60
2022/12/23 04:24:37;;;;;;;462.65;277.83;;;256.10;2252.80;;;;;;5090601;28;20028;-60
2022/12/23 04:27:04;;;;;;;175.25;100.75;;;256.10;2252.80;;;;;;5089977;28;20039;-61
2022/12/23 04:29:29;;;;;;;96.18;53.25;;;256.10;2252.80;;;;;;5090406;28;20816;-60
2022/12/23 04:31:55;;;;;;;260.45;133.63;;;256.20;2252.80;;;;;;5090163;28;20027;-61
2022/12/23 04:34:21;;;;;;;67.13;39.50;;;256.10;2252.80;;;;;;5090237;28;20458;-59
2022/12/23 04:36:46;;;;;;;68.30;40.05;;;256.20;2252.80;;;;;;5090268;28;20024;-59
2022/12/23 04:39:12;;;;;;;129.60;75.97;;;256.20;2252.80;;;;;;5088830;28;20024;-59
2022/12/23 04:41:38;;;;;;;63.17;39.88;;;256.20;2252.80;;;;;;5090390;28;20056;-59
2022/12/23 04:44:04;;;;;;;28.63;20.13;;;256.30;2252.80;;;;;;5089804;28;20024;-60
2022/12/23 04:46:29;;;;;;;26.90;20.00;;;256.30;2252.80;;;;;;5089913;28;20123;-59
2022/12/23 04:48:55;;;;;;;88.35;50.40;;;256.30;2252.80;;;;;;5090234;28;20032;-60
2022/12/23 04:51:21;;;;;;;40.63;27.90;;;256.30;2252.80;;;;;;5089911;28;20020;-60
2022/12/23 04:53:46;;;;;;;41.22;29.13;;;256.30;2252.80;;;;;;5090302;28;20070;-59
2022/12/23 04:56:12;;;;;;;42.17;32.50;;;256.20;2252.80;;;;;;5090099;28;20024;-59
2022/12/23 04:58:38;;;;;;;51.38;37.90;;;256.10;2252.80;;;;;;5089990;28;20064;-60
2022/12/23 05:01:06;;;;;;;45.72;30.90;;;256.10;2252.80;;;;;;5089770;28;20024;-60
2022/12/23 05:03:32;;;;;;;37.40;26.95;;;256.00;2252.80;;;;;;5089821;28;20032;-60
2022/12/23 05:05:58;;;;;;;39.60;27.60;;;256.00;2252.80;;;;;;5090052;28;20039;-59
2022/12/23 05:08:24;;;;;;;100.10;57.83;;;231.30;2073.60;;;;;;5090056;28;20028;-59
2022/12/23 05:10:50;;;;;;;118.28;70.10;;;231.30;2252.80;;;;;;5089833;28;20028;-59
2022/12/23 05:13:16;;;;;;;64.68;41.88;;;256.00;2252.80;;;;;;5090030;28;20030;-59
2022/12/23 05:15:47;;;;;;;39.05;29.50;;;256.00;1971.20;;;;;;5089793;28;20347;-59
2022/12/23 05:18:13;;;;;;;31.10;23.85;;;256.00;2252.80;;;;;;5089886;28;20473;-59
2022/12/23 05:20:39;;;;;;;35.72;27.30;;;256.10;2252.80;;;;;;5090188;28;20032;-59
2022/12/23 05:23:04;;;;;;;42.47;31.80;;;256.10;2252.80;;;;;;5089993;28;20081;-59
2022/12/23 05:25:32;;;;;;;61.85;41.33;;;231.30;2252.80;;;;;;5089547;28;20134;-60
2022/12/23 05:27:58;;;;;;;90.75;52.00;;;231.30;2252.80;;;;;;5069616;28;20017;-60
2022/12/23 05:30:24;;;;;;;49.20;34.60;;;231.20;2252.80;;;;;;5069802;28;20025;-60
2022/12/23 05:32:54;;;;;;;27.45;21.92;;;231.20;2252.80;;;;;;5069484;28;20025;-60
2022/12/23 05:35:20;;;;;;;298.83;149.50;;;231.10;2124.80;;;;;;5069605;28;20428;-59
2022/12/23 05:37:46;;;;;;;143.60;79.70;;;231.00;1971.20;;;;;;5069712;28;20052;-60
2022/12/23 05:40:12;;;;;;;77.85;49.03;;;231.00;2252.80;;;;;;5069230;28;20521;-59
2022/12/23 05:42:37;;;;;;;62.35;40.45;;;230.80;2252.80;;;;;;5069161;28;20372;-59
2022/12/23 05:45:03;;;;;;;42.50;27.38;;;230.90;2252.80;;;;;;5069087;28;20109;-61
2022/12/23 05:47:29;;;;;;;136.73;81.65;;;230.80;2252.80;;;;;;5088730;28;20036;-59
2022/12/23 05:49:55;;;;;;;52.03;35.20;;;230.80;2252.80;;;;;;5089022;28;20031;-60
2022/12/23 05:52:20;;;;;;;44.70;33.38;;;230.90;1971.20;;;;;;5089382;28;20111;-60
2022/12/23 05:54:46;;;;;;;62.30;44.97;;;230.80;1920.00;;;;;;5090296;28;20024;-59
2022/12/23 05:57:12;;;;;;;54.08;36.35;;;230.70;2227.20;;;;;;5092797;28;20080;-60
2022/12/23 05:59:37;;;;;;;112.60;73.85;;;230.70;2252.80;;;;;;5093113;28;20048;-60
2022/12/23 06:02:03;;;;;;;35.05;29.55;;;230.60;2252.80;;;;;;5092807;28;20024;-60
2022/12/23 06:04:29;;;;;;;62.47;46.25;;;230.70;2252.80;;;;;;5092895;28;20038;-59
2022/12/23 06:06:54;;;;;;;34.25;30.52;;;230.50;2252.80;;;;;;5093090;28;20032;-59
2022/12/23 06:09:20;;;;;;;41.45;30.25;;;230.60;2252.80;;;;;;5092456;28;20039;-59
2022/12/23 06:11:46;;;;;;;62.70;45.95;;;230.60;2252.80;;;;;;5093021;28;20386;-59
2022/12/23 06:14:11;;;;;;;64.53;39.80;;;230.60;1868.80;;;;;;5092754;28;20020;-59
2022/12/23 06:16:37;;;;;;;58.78;45.30;;;230.60;2252.80;;;;;;5092892;28;20024;-59
2022/12/23 06:19:03;;;;;;;49.03;39.22;;;230.70;2252.80;;;;;;5092513;28;20111;-60
2022/12/23 06:21:28;;;;;;;46.90;41.92;;;230.70;2252.80;;;;;;5093103;28;20031;-59
2022/12/23 06:23:54;;;;;;;30.73;24.38;;;230.80;2150.40;;;;;;5092916;28;20423;-59
2022/12/23 06:26:20;;;;;;;32.35;29.27;;;230.80;2252.80;;;;;;5092282;28;20036;-59
2022/12/23 06:28:46;;;;;;;25.83;19.33;;;230.70;2252.80;;;;;;5092561;28;20032;-61
2022/12/23 06:31:12;;;;;;;24.33;17.60;;;230.70;1971.20;;;;;;5092230;28;20064;-59
2022/12/23 06:33:37;;;;;;;20.17;14.85;;;230.80;2022.40;;;;;;5092599;28;20053;-59
2022/12/23 06:36:03;;;;;;;22.80;20.25;;;230.90;2227.20;;;;;;5092439;28;20028;-59
2022/12/23 06:38:29;;;;;;;50.30;35.92;;;230.90;2252.80;;;;;;5092525;28;20373;-59
2022/12/23 06:40:55;;;;;;;61.80;44.25;;;231.00;2252.80;;;;;;5092216;28;20111;-60
2022/12/23 06:43:20;;;;;;;95.05;63.47;;;231.10;2252.80;;;;;;5092057;28;20024;-60
2022/12/23 06:45:47;;;;;;;73.80;53.50;;;231.20;2252.80;;;;;;5092158;28;20111;-59
2022/12/23 06:48:13;;;;;;;64.75;57.40;;;231.30;2252.80;;;;;;5092026;28;20484;-60
2022/12/23 06:50:39;;;;;;;35.08;29.95;;;256.00;2252.80;;;;;;5092384;28;20028;-60
2022/12/23 06:53:05;;;;;;;18.77;16.73;;;256.00;2252.80;;;;;;5092400;28;20485;-59
2022/12/23 06:55:31;;;;;;;26.83;18.95;;;256.10;2252.80;;;;;;5091853;28;20046;-59
2022/12/23 06:57:57;;;;;;;33.45;24.35;;;256.40;2252.80;;;;;;5092234;28;20031;-59
2022/12/23 07:00:22;;;;;;;33.45;24.88;;;256.50;2252.80;;;;;;5091863;28;20095;-59
2022/12/23 07:02:48;;;;;;;34.70;26.33;;;256.60;2252.80;;;;;;5092052;28;20462;-59
2022/12/23 07:05:14;;;;;;;24.25;18.10;;;256.80;2252.80;;;;;;5091635;28;20359;-59
2022/12/23 07:07:40;;;;;;;23.35;18.23;;;256.80;2252.80;;;;;;5091759;28;20034;-59
2022/12/23 07:10:06;;;;;;;35.97;29.48;;;256.70;2252.80;;;;;;5091793;28;20036;-59
2022/12/23 07:12:32;;;;;;;25.85;22.58;;;256.60;2252.80;;;;;;5091793;28;20031;-60
2022/12/23 07:14:58;;;;;;;21.77;18.15;;;256.60;2252.80;;;;;;5091765;28;20378;-59
2022/12/23 07:17:24;;;;;;;34.30;29.52;;;256.50;2252.80;;;;;;5091477;28;20051;-60
2022/12/23 07:19:50;;;;;;;45.85;38.20;;;256.40;2252.80;;;;;;5091343;28;20020;-59
2022/12/23 07:22:15;;;;;;;35.40;31.45;;;256.20;2252.80;;;;;;5091579;28;20027;-59
2022/12/23 07:24:41;;;;;;;31.83;27.92;;;256.10;2252.80;;;;;;5091374;28;20016;-60
2022/12/23 07:27:07;;;;;;;26.65;21.65;;;256.10;2252.80;;;;;;5091568;28;20036;-59
2022/12/23 07:29:32;;;;;;;22.60;18.33;;;256.10;2252.80;;;;;;5091182;28;20031;-59
2022/12/23 07:31:59;;;;;;;19.27;17.23;;;256.00;2252.80;;;;;;5091375;28;20060;-59
2022/12/23 07:34:25;;;;;;;33.75;26.83;;;256.00;2252.80;;;;;;5091493;28;20103;-59
2022/12/23 07:36:50;;;;;;;35.00;25.83;;;256.10;2252.80;;;;;;5091136;28;20506;-59
2022/12/23 07:39:16;;;;;;;27.77;21.65;;;256.20;2252.80;;;;;;5090602;28;20031;-59
2022/12/23 07:41:42;;;;;;;34.53;26.88;;;256.00;2252.80;;;;;;5090989;28;20135;-60
2022/12/23 07:44:07;;;;;;;23.83;19.63;;;256.10;2252.80;;;;;;5091132;28;20115;-63
2022/12/23 07:46:33;;;;;;;24.98;20.20;;;256.00;2252.80;;;;;;5090856;28;20056;-58
2022/12/23 07:48:59;;;;;;;37.67;33.58;;;256.00;2252.80;;;;;;5091129;28;20374;-60
2022/12/23 07:51:25;;;;;;;23.40;19.50;;;256.00;2252.80;;;;;;5091251;28;20028;-59
2022/12/23 07:53:51;;;;;;;45.53;33.20;;;231.30;2252.80;;;;;;5090737;28;20024;-63
2022/12/23 07:56:17;;;;;;;58.17;45.70;;;256.00;2252.80;;;;;;5091036;28;20059;-60
2022/12/23 07:58:50;;;;;;;33.60;25.23;;;256.00;2252.80;;;;;;5090687;28;20070;-59
2022/12/23 08:01:17;;;;;;;36.00;27.92;;;256.00;2252.80;;;;;;5090819;28;20031;-59
2022/12/23 08:03:44;;;;;;;54.08;43.70;;;256.00;2252.80;;;;;;5090510;28;20056;-59
2022/12/23 08:06:11;;;;;;;138.00;94.47;;;256.20;2252.80;;;;;;5090814;28;20063;-59
2022/12/23 08:08:38;;;;;;;351.25;234.00;;;256.20;2252.80;;;;;;5090692;28;20374;-67
2022/12/23 08:11:05;;;;;;;530.88;377.30;;;256.40;2252.80;;;;;;5090675;28;20115;-68
2022/12/23 08:13:34;;;;;;;475.65;322.70;;;256.50;2252.80;;;;;;5090367;28;20064;-58
2022/12/23 08:16:01;;;;;;;199.02;135.45;;;256.60;2252.80;;;;;;5090680;28;20960;-58
2022/12/23 08:18:29;;;;;;;81.90;59.22;;;256.80;2252.80;;;;;;5090099;28;20024;-67
2022/12/23 08:20:57;;;;;;;87.75;62.97;;;281.60;2278.40;;;;;;5090605;28;20039;-59
2022/12/23 08:23:25;;;;;;;76.00;51.63;;;281.80;2278.40;;;;;;5090548;28;20382;-63
2022/12/23 08:26:04;;;;;;;42.63;27.77;;;307.50;2304.00;;;;;;5090046;28;20114;-58
2022/12/23 08:28:30;;;;;;;14.30;10.68;;;307.80;2304.00;;;;;;5090698;28;20486;-59
2022/12/23 08:31:06;;;;;;;20.77;18.30;;;307.50;2304.00;;;;;;5090277;28;20031;-62
2022/12/23 08:33:32;;;;;;;27.65;24.95;;;307.50;2304.00;;;;;;5090355;28;20085;-58
2022/12/23 08:35:58;;;;;;;25.33;20.55;;;307.60;2304.00;;;;;;5090328;28;20024;-66
2022/12/23 08:38:24;;;;;;;42.28;32.65;;;307.50;2304.00;;;;;;5089886;28;20027;-67
2022/12/23 08:40:50;;;;;;;58.70;41.60;;;307.60;2304.00;;;;;;5090158;28;20486;-64
2022/12/23 08:43:15;;;;;;;94.68;76.80;;;332.90;2329.60;;;;;;5090283;28;20501;-65
2022/12/23 08:45:41;;;;;;;82.10;67.28;;;359.20;2329.60;;;;;;5088378;28;20048;-67
2022/12/23 08:48:07;;;;;;;106.35;93.78;;;410.50;2355.20;;;;;;5090186;28;20105;-66
2022/12/23 08:50:40;;;;;;;135.77;118.50;;;410.30;2355.20;;;;;;5089931;28;20024;-63
2022/12/23 08:53:05;;;;;;;158.00;141.27;;;435.30;2355.20;;;;;;5090348;28;20020;-59
2022/12/23 08:55:37;;;;;;;151.82;135.50;;;435.20;2355.20;;;;;;5090095;28;20497;-59
2022/12/23 08:58:03;;;;;;;130.43;116.75;;;436.10;2355.20;;;;;;5090020;28;20517;-67
2022/12/23 09:00:28;;;;;;;115.15;102.97;;;486.40;2329.60;;;;;;5090335;28;20051;-59
2022/12/23 09:02:54;;;;;;;102.60;91.10;;;487.30;2176.00;;;;;;5089837;28;20486;-67
2022/12/23 09:05:20;;;;;;;137.60;122.97;;;512.70;2048.00;;;;;;5089880;28;20032;-59
2022/12/23 09:07:45;;;;;;;118.80;106.35;;;537.80;2022.40;;;;;;5090374;28;20077;-65
2022/12/23 09:10:11;;;;;;;174.55;156.20;;;538.50;1920.00;;;;;;5089885;28;20102;-59
2022/12/23 09:12:37;;;;;;;153.13;137.45;;;538.50;1945.60;;;;;;5090146;28;20024;-60
2022/12/23 09:15:03;;;;;;;147.25;132.32;;;563.30;1920.00;;;;;;5089768;28;20281;-65
2022/12/23 09:17:29;;;;;;;122.15;109.35;;;563.40;1894.40;;;;;;5090013;28;20444;-59
2022/12/23 09:19:56;;;;;;;104.65;92.90;;;537.80;1945.60;;;;;;5090137;28;20050;-67
2022/12/23 09:22:21;;;;;;;133.30;118.40;;;512.20;1996.80;;;;;;5089918;28;20099;-59
2022/12/23 09:24:47;;;;;;;79.13;67.75;;;486.70;2099.20;;;;;;5089778;28;20115;-65
2022/12/23 09:27:13;;;;;;;82.43;73.53;;;461.20;2176.00;;;;;;5089816;28;20032;-58
2022/12/23 09:29:38;;;;;;;73.97;63.65;;;436.10;2252.80;;;;;;5090446;28;20060;-65
2022/12/23 09:32:04;;;;;;;76.05;63.20;;;435.30;2355.20;;;;;;5093578;28;20024;-57
2022/12/23 09:34:30;;;;;;;117.70;101.97;;;410.50;2355.20;;;;;;5093908;28;20072;-57
2022/12/23 09:36:55;;;;;;;150.55;129.50;;;409.60;2355.20;;;;;;5094052;28;20026;-60
2022/12/23 09:39:21;;;;;;;174.68;146.88;;;384.40;2329.60;;;;;;5093475;28;20386;-63
2022/12/23 09:42:06;;;;;;;201.50;165.50;;;359.30;2329.60;;;;;;5093569;28;20406;-65
2022/12/23 09:44:40;;;;;;;248.55;210.27;;;358.90;2329.60;;;;;;5093633;28;20034;-63
2022/12/23 09:47:11;;;;;;;209.35;169.00;;;358.80;2329.60;;;;;;5093443;28;20043;-65
2022/12/23 09:49:44;;;;;;;202.38;165.65;;;358.70;2329.60;;;;;;5093550;28;20460;-61
2022/12/23 09:52:15;;;;;;;190.90;157.27;;;358.50;2329.60;;;;;;5093540;28;20107;-59
2022/12/23 09:54:46;;;;;;;193.07;153.93;;;358.50;2329.60;;;;;;5093314;28;20036;-58
2022/12/23 09:57:53;;;;;;;191.05;157.15;;;358.50;2329.60;;;;;;5093236;28;20520;-65
2022/12/23 10:00:21;;;;;;;191.07;161.52;;;358.50;2329.60;;;;;;5093234;28;20020;-61
2022/12/23 10:03:04;;;;;;;168.10;139.30;;;358.40;2329.60;;;;;;5093206;28;20036;-63
2022/12/23 10:05:44;;;;;;;155.65;129.10;;;358.40;2329.60;;;;;;5093050;28;20039;-59
2022/12/23 10:08:26;;;;;;;178.57;140.07;;;333.70;2329.60;;;;;;5091732;28;20394;-66
2022/12/23 10:11:10;;;;;;;196.43;155.60;;;333.70;2329.60;;;;;;5092717;28;20024;-57
2022/12/23 10:13:40;;;;;;;191.82;157.75;;;333.60;2329.60;;;;;;5092991;28;20111;-58
2022/12/23 10:16:12;;;;;;;162.88;129.98;;;333.70;2329.60;;;;;;5092294;28;20032;-57
2022/12/23 10:18:40;;;;;;;166.73;134.45;;;333.60;2329.60;;;;;;5093036;28;20028;-57
2022/12/23 10:21:35;;;;;;;182.80;144.90;;;333.70;2329.60;;;;;;5093083;28;20016;-57
2022/12/23 10:24:24;;;;;;;158.65;130.10;;;333.70;2329.60;;;;;;5092508;28;20115;-62
2022/12/23 10:26:53;;;;;;;178.50;145.00;;;333.70;2329.60;;;;;;5092493;28;20402;-64
2022/12/23 10:29:21;;;;;;;175.93;144.38;;;333.50;2329.60;;;;;;5093029;28;20107;-66
2022/12/23 10:32:24;;;;;;;175.63;142.45;;;333.70;2329.60;;;;;;5092737;28;20042;-66
2022/12/23 10:35:17;;;;;;;180.43;146.25;;;333.70;2329.60;;;;;;5092425;28;20028;-61
2022/12/23 10:37:47;;;;;;;223.83;174.70;;;333.70;2329.60;;;;;;5092172;28;20110;-56
2022/12/23 10:40:22;;;;;;;217.30;179.43;;;333.70;2329.60;;;;;;5091785;28;20353;-67
2022/12/23 10:43:17;;;;;;;192.20;159.02;;;358.50;2329.60;;;;;;5092259;28;20059;-57
2022/12/23 10:46:13;;;;;;;188.30;151.73;;;358.40;2329.60;;;;;;5092282;28;20059;-59
2022/12/23 10:49:06;;;;;;;229.15;185.88;;;358.40;2329.60;;;;;;5010371;28;20033;-58
2022/12/23 10:51:47;;;;;;;181.87;146.13;;;358.50;2329.60;;;;;;5009974;28;20018;-57
2022/12/23 10:54:43;;;;;;;208.75;164.90;;;358.50;2329.60;;;;;;5010070;28;20294;-63
2022/12/23 10:57:11;;;;;;;220.68;170.15;;;358.60;2329.60;;;;;;5010230;28;20030;-58
2022/12/23 10:59:36;;;;;;;177.73;143.10;;;358.80;2329.60;;;;;;5010128;28;20030;-60
2022/12/23 11:02:11;;;;;;;167.02;141.70;;;358.90;2329.60;;;;;;5009727;28;20105;-63
2022/12/23 11:04:39;;;;;;;136.48;109.97;;;358.90;2329.60;;;;;;5009929;28;20037;-57
2022/12/23 11:07:07;;;;;;;132.65;104.97;;;359.10;2329.60;;;;;;5009863;28;20042;-57
2022/12/23 11:09:38;;;;;;;115.75;92.85;;;359.10;2329.60;;;;;;4993186;28;20068;-65
2022/12/23 11:12:07;;;;;;;111.18;89.60;;;359.10;2329.60;;;;;;5009679;28;20082;-65
2022/12/23 11:14:41;;;;;;;115.75;95.00;;;359.30;2329.60;;;;;;5009435;28;20480;-60
2022/12/23 11:17:25;;;;;;;129.30;105.63;;;359.30;2329.60;;;;;;5009532;28;20080;-66
2022/12/23 11:20:09;;;;;;;;;;;384.00;2329.60;;;;;;5009669;28;20045;-64
2022/12/23 11:22:39;;;;;;;97.38;77.13;;;384.00;2329.60;;;;;;5009349;28;19996;-65
2022/12/23 11:25:24;;;;;;;91.60;77.18;;;384.10;2329.60;;;;;;5031071;28;20490;-62
2022/12/23 11:27:55;;;;;;;103.05;83.15;;;384.20;2329.60;;;;;;5091429;28;20032;-63
2022/12/23 11:30:21;;;;;;;86.47;66.13;;;384.10;2329.60;;;;;;5091264;28;20032;-65
2022/12/23 11:32:47;;;;;;;76.88;62.38;;;384.20;2329.60;;;;;;5091427;28;20078;-65
2022/12/23 11:35:32;;;;;;;84.90;66.60;;;384.40;2329.60;;;;;;5091152;28;20381;-61
2022/12/23 11:38:00;;;;;;;65.97;50.85;;;384.40;2329.60;;;;;;5091367;28;20031;-61
2022/12/23 11:40:46;;;;;;;47.85;37.40;;;384.40;2329.60;;;;;;5091196;28;20031;-67
2022/12/23 11:43:14;;;;;;;54.03;39.05;;;384.60;2329.60;;;;;;5009105;28;20049;-62
2022/12/23 11:45:40;;;;;;;62.78;39.88;;;384.70;2329.60;;;;;;5009109;28;20061;-59
2022/12/23 11:48:26;;;;;;;39.80;29.23;;;384.70;2329.60;;;;;;5008975;28;20044;-58
2022/12/23 11:51:02;;;;;;;14.32;12.23;;;384.90;2329.60;;;;;;5009008;28;20488;-63
2022/12/23 11:53:31;;;;;;;82.50;55.92;;;409.60;2355.20;;;;;;5008431;28;20748;-66
2022/12/23 11:56:05;;;;;;;61.45;48.47;;;384.80;2329.60;;;;;;5009744;28;20464;-65
2022/12/23 11:58:49;;;;;;;38.58;31.90;;;384.70;2329.60;;;;;;5013669;28;20026;-61
2022/12/23 12:01:22;;;;;;;41.75;31.65;;;384.90;2329.60;;;;;;5013950;28;20030;-67
2022/12/23 12:04:02;;;;;;;46.20;33.47;;;384.90;2329.60;;;;;;5015090;28;20037;-59
2022/12/23 12:06:28;;;;;;;25.75;21.83;;;384.90;2329.60;;;;;;5015223;28;20034;-64
2022/12/23 12:08:57;;;;;;;35.83;27.30;;;384.90;2329.60;;;;;;5012939;28;20053;-58
2022/12/23 12:11:45;;;;;;;32.78;23.42;;;384.90;2329.60;;;;;;5008467;28;20030;-58
2022/12/23 12:14:21;;;;;;;21.70;16.80;;;409.60;2355.20;;;;;;5008480;28;20037;-61
2022/12/23 12:17:25;;;;;;;140.88;98.35;;;409.80;2355.20;;;;;;5008498;28;20036;-60
2022/12/23 12:20:15;;;;;;;29.33;18.80;;;409.90;2252.80;;;;;;5031371;28;20044;-58
2022/12/23 12:23:23;;;;;;;107.32;77.10;;;409.90;2278.40;;;;;;5089421;28;20032;-66
2022/12/23 12:26:24;;;;;;;141.68;95.50;;;409.90;2227.20;;;;;;5070015;28;20120;-59
2022/12/23 12:29:05;;;;;;;180.00;124.13;;;409.80;2227.20;;;;;;5068720;28;20040;-68
2022/12/23 12:31:38;;;;;;;22.90;13.57;;;409.70;2227.20;;;;;;5089562;28;20021;-59
2022/12/23 12:34:28;;;;;;;13.70;9.93;;;409.90;2201.60;;;;;;5089034;28;20106;-64
2022/12/23 12:37:07;;;;;;;90.38;68.65;;;410.00;2201.60;;;;;;5087131;28;20261;-66
2022/12/23 12:39:41;;;;;;;78.82;70.10;;;409.80;2201.60;;;;;;5087559;28;20750;-58